UKLR/RWN METAR and TAF weather

Enter ICAO airport designator
Station Type Date Time Source
UKLR METAR 2019/08/24 15:00 UTC NOAA

UKLR 241500Z 04002MPS 020V090 CAVOK 24/10 Q1026 NOSIG


Station Type Date Time Source
UKLR Decoded METAR 2019/08/24 15:00 UTC NOAA

Station name not available
Aug 24, 2019 - 11:00 AM EDT / 2019.08.24 1500 UTC
Wind: from the NE (040 degrees) at 4 MPH (4 KT) (direction variable):0
Visibility: greater than 7 mile(s):0
Temperature: 75 F (24 C)
Dew Point: 50 F (10 C)
Relative Humidity: 41%
Pressure (altimeter): 30.30 in. Hg (1026 hPa)
ob: UKLR 241500Z 04002MPS 020V090 CAVOK 24/10 Q1026 NOSIG
cycle: 15

Station Type Date Time Source
UKLR TAF 2019/08/16 12:15 UTC NOAA

TAF TAF UKLR 161105Z 1612/1821 35003MPS 9999 BKN020 SCT023CB

Example: see airport list